Terminal Aerodrome Forecast
Issued by NWS Pittsburgh, PA

Current Version | Previous Version | Text Only | Print | Product List | Glossary Off
Versions: 1 2 3 4 5 6 7 8 9 10 11 12 13 14 15 16 17 18 19 20 21 22 23 24 25

221
FTUS41 KPBZ 211455 AAA
TAFPIT
TAF AMD
KPIT 211455Z 2115/2218 21012G25KT P6SM SCT200
     FM212300 21009KT P6SM BKN120
     FM220600 28008KT P6SM VCSH BKN020
     FM221100 30007KT P6SM BKN035=

USA.gov is the U.S. government's official web portal to all federal, state and local government web resources and services.